Time;durP1;ratioP1;P1;durP2;ratioP2;P2;SDS_P1;SDS_P2;PMS_P1;PMS_P2;Temp;Humidity;BMP_temperature;BMP_pressure;BME280_temperature;BME280_humidity;BME280_pressure;Samples;Min_cycle;Max_cycle;Signal;HPM_P1;HPM_P2
2022/11/09 00:01:27;;;;;;;11.25;1.65;;;8.60;99.90;;;;;;5007260;28;20046;-66
2022/11/09 00:03:57;;;;;;;20.25;2.30;;;8.60;99.90;;;;;;5010545;28;20048;-70
2022/11/09 00:06:26;;;;;;;17.90;1.90;;;8.50;99.90;;;;;;5022506;28;20045;-70
2022/11/09 00:08:54;;;;;;;12.45;1.67;;;8.50;99.90;;;;;;5015139;28;21945;-73
2022/11/09 00:11:22;;;;;;;7.45;1.75;;;8.50;99.90;;;;;;5011627;28;20054;-63
2022/11/09 00:13:50;;;;;;;20.98;1.60;;;8.50;99.90;;;;;;5015702;28;20068;-63
2022/11/09 00:16:19;;;;;;;16.05;1.95;;;8.50;99.90;;;;;;5023728;28;20049;-66
2022/11/09 00:18:48;;;;;;;11.75;3.20;;;8.60;99.90;;;;;;5018879;28;20050;-75
2022/11/09 00:21:20;;;;;;;6.53;1.20;;;8.50;99.90;;;;;;5018521;28;20049;-69
2022/11/09 00:23:48;;;;;;;9.07;1.55;;;8.50;99.90;;;;;;5017202;28;20053;-66
2022/11/09 00:26:17;;;;;;;12.38;1.80;;;8.50;99.90;;;;;;5018847;28;20073;-65
2022/11/09 00:28:45;;;;;;;14.15;1.75;;;8.50;99.90;;;;;;5010602;28;20054;-63
2022/11/09 00:31:17;;;;;;;16.80;2.35;;;8.50;99.90;;;;;;5026366;28;20050;-63
2022/11/09 00:33:49;;;;;;;15.85;1.27;;;8.50;99.90;;;;;;5022362;28;20049;-63
2022/11/09 00:36:18;;;;;;;8.25;1.98;;;8.50;99.90;;;;;;5026265;28;20061;-63
2022/11/09 00:38:51;;;;;;;13.55;2.03;;;8.50;99.90;;;;;;5019341;28;20071;-65
2022/11/09 00:41:21;;;;;;;14.35;1.60;;;8.40;99.90;;;;;;5009816;28;20410;-63
2022/11/09 00:43:53;;;;;;;17.20;2.08;;;8.40;99.90;;;;;;5000114;28;20050;-64
2022/11/09 00:46:21;;;;;;;17.90;1.75;;;8.40;99.90;;;;;;5015471;28;20057;-65
2022/11/09 00:48:51;;;;;;;12.45;1.60;;;;;;;;;;5015767;28;20425;-63
2022/11/09 00:51:18;;;;;;;10.70;2.25;;;8.40;99.90;;;;;;5020039;28;20037;-63
2022/11/09 00:53:53;;;;;;;9.25;1.48;;;;;;;;;;5011197;28;20397;-67
2022/11/09 00:56:23;;;;;;;6.65;1.73;;;8.40;99.90;;;;;;5014976;28;20046;-63
2022/11/09 00:58:54;;;;;;;11.23;1.40;;;8.30;99.90;;;;;;5024128;28;20052;-62
2022/11/09 01:01:22;;;;;;;8.75;2.40;;;8.30;99.90;;;;;;5008750;28;20049;-62
2022/11/09 01:03:50;;;;;;;15.27;2.58;;;8.40;99.90;;;;;;5013638;28;20041;-62
2022/11/09 01:06:24;;;;;;;13.98;1.90;;;8.40;99.90;;;;;;5020193;28;20049;-65
2022/11/09 01:08:52;;;;;;;10.57;1.05;;;8.30;99.90;;;;;;5014588;28;20054;-62
2022/11/09 01:11:21;;;;;;;15.80;1.23;;;8.40;99.90;;;;;;5011563;28;20038;-63
2022/11/09 01:13:52;;;;;;;12.82;2.53;;;;;;;;;;5013786;28;20478;-61
2022/11/09 01:16:21;;;;;;;8.50;1.00;;;8.40;99.90;;;;;;5016506;28;20037;-62
2022/11/09 01:18:53;;;;;;;12.10;2.05;;;8.40;99.90;;;;;;5018566;28;20063;-62
2022/11/09 01:21:21;;;;;;;14.48;1.88;;;8.40;99.90;;;;;;5006945;28;20061;-62
2022/11/09 01:23:48;;;;;;;14.32;1.67;;;8.40;99.90;;;;;;5011785;28;20045;-61
2022/11/09 01:26:16;;;;;;;10.63;1.20;;;8.40;99.90;;;;;;5008533;28;20438;-62
2022/11/09 01:28:44;;;;;;;12.90;1.58;;;8.40;99.90;;;;;;5013743;28;20104;-62
2022/11/09 01:31:15;;;;;;;11.73;1.05;;;8.40;99.90;;;;;;5009111;28;20042;-63
2022/11/09 01:33:43;;;;;;;15.73;1.88;;;8.40;99.90;;;;;;5017087;28;20048;-62
2022/11/09 01:36:19;;;;;;;14.57;1.88;;;8.40;99.90;;;;;;5017276;28;20053;-68
2022/11/09 01:38:47;;;;;;;10.38;1.17;;;8.40;99.90;;;;;;5011038;28;20409;-62
2022/11/09 01:41:18;;;;;;;9.50;1.40;;;8.30;99.90;;;;;;5015727;28;20038;-62
2022/11/09 01:44:05;;;;;;;9.35;1.35;;;8.30;99.90;;;;;;5009257;28;20054;-61
2022/11/09 01:46:40;;;;;;;13.60;1.58;;;8.30;99.90;;;;;;5008246;28;20524;-61
2022/11/09 01:49:21;;;;;;;12.68;1.70;;;8.30;99.90;;;;;;5009836;28;20037;-63
2022/11/09 01:52:04;;;;;;;8.90;1.40;;;8.20;99.90;;;;;;5022620;28;20037;-70
2022/11/09 01:54:46;;;;;;;14.90;1.40;;;8.20;99.90;;;;;;5018169;28;20052;-73
2022/11/09 01:57:33;;;;;;;17.38;2.00;;;8.20;99.90;;;;;;5009891;28;20044;-72
2022/11/09 02:00:10;;;;;;;16.38;1.10;;;8.20;99.90;;;;;;5009628;28;20058;-66
2022/11/09 02:03:04;;;;;;;15.32;2.22;;;8.20;99.90;;;;;;5017520;28;20056;-74
2022/11/09 02:05:36;;;;;;;11.20;1.48;;;8.20;99.90;;;;;;5019058;28;20045;-67
2022/11/09 02:08:06;;;;;;;14.43;2.20;;;8.20;99.90;;;;;;5023640;28;20040;-63
2022/11/09 02:10:59;;;;;;;11.30;1.92;;;8.30;99.90;;;;;;5021971;28;20416;-64
2022/11/09 02:13:29;;;;;;;14.55;1.35;;;8.20;99.90;;;;;;5025507;28;20049;-63
2022/11/09 02:15:58;;;;;;;10.50;1.30;;;8.20;99.90;;;;;;4995908;28;20050;-65
2022/11/09 02:18:27;;;;;;;15.55;1.50;;;8.20;99.90;;;;;;5011027;28;20052;-69
2022/11/09 02:20:57;;;;;;;8.02;1.60;;;8.20;99.90;;;;;;5010258;28;20056;-62
2022/11/09 02:23:26;;;;;;;11.73;0.95;;;8.20;99.90;;;;;;5013293;28;20049;-63
2022/11/09 02:25:58;;;;;;;7.93;0.75;;;8.20;99.90;;;;;;5007611;28;20042;-63
2022/11/09 02:28:27;;;;;;;7.22;1.10;;;8.20;99.90;;;;;;5007716;28;20057;-63
2022/11/09 02:30:55;;;;;;;12.73;1.88;;;8.20;99.90;;;;;;5011996;28;20068;-65
2022/11/09 02:33:24;;;;;;;;;;;8.20;99.90;;;;;;5022386;28;20057;-65
2022/11/09 02:35:53;;;;;;;11.90;0.88;;;8.30;99.90;;;;;;5024237;28;19921;-72
2022/11/09 02:38:21;;;;;;;7.72;1.15;;;8.20;99.90;;;;;;5023183;28;20044;-74
2022/11/09 02:40:51;;;;;;;7.28;0.98;;;8.30;99.90;;;;;;5010123;28;20133;-71
2022/11/09 02:43:19;;;;;;;4.13;0.90;;;8.30;99.90;;;;;;5015241;28;20486;-72
2022/11/09 02:45:48;;;;;;;19.27;1.48;;;8.30;99.90;;;;;;5022500;28;20049;-62
2022/11/09 02:48:16;;;;;;;20.10;1.58;;;8.30;99.90;;;;;;5023419;28;20580;-64
2022/11/09 02:50:43;;;;;;;18.90;1.02;;;8.30;99.90;;;;;;5030063;28;20535;-63
2022/11/09 02:53:11;;;;;;;12.52;1.50;;;8.40;99.90;;;;;;5021094;28;20053;-62
2022/11/09 02:55:42;;;;;;;11.32;1.00;;;8.40;99.90;;;;;;5018858;28;20045;-63
2022/11/09 02:58:11;;;;;;;11.68;1.65;;;8.40;99.90;;;;;;5011662;28;20046;-62
2022/11/09 03:00:39;;;;;;;7.18;1.65;;;8.40;99.90;;;;;;5011436;28;20048;-66
2022/11/09 03:03:08;;;;;;;12.30;1.00;;;8.40;99.90;;;;;;5010218;28;20411;-63
2022/11/09 03:05:36;;;;;;;10.75;1.05;;;8.40;99.90;;;;;;5018066;28;20064;-67
2022/11/09 03:08:04;;;;;;;12.17;1.27;;;8.50;99.90;;;;;;5010167;28;20050;-66
2022/11/09 03:10:34;;;;;;;13.10;1.63;;;8.50;99.90;;;;;;5010006;28;20649;-66
2022/11/09 03:13:02;;;;;;;17.70;2.28;;;8.60;99.90;;;;;;5026038;28;20045;-65
2022/11/09 03:15:30;;;;;;;15.93;1.30;;;8.50;99.90;;;;;;5029852;28;20053;-67
2022/11/09 03:17:57;;;;;;;8.70;0.88;;;8.50;99.90;;;;;;5030742;28;20053;-64
2022/11/09 03:20:25;;;;;;;10.93;1.95;;;8.50;99.90;;;;;;5024598;28;20303;-65
2022/11/09 03:22:57;;;;;;;9.00;1.48;;;8.50;99.90;;;;;;5019028;28;20053;-66
2022/11/09 03:25:26;;;;;;;11.60;1.40;;;8.50;99.90;;;;;;5029661;28;20048;-69
2022/11/09 03:27:59;;;;;;;11.65;1.30;;;8.50;99.90;;;;;;5028088;28;20041;-65
2022/11/09 03:30:29;;;;;;;10.23;1.50;;;8.50;99.90;;;;;;5009880;28;20509;-62
2022/11/09 03:33:03;;;;;;;12.13;1.40;;;8.50;99.90;;;;;;5010335;28;20041;-65
2022/11/09 03:35:31;;;;;;;8.48;0.80;;;8.50;99.90;;;;;;5009505;28;20042;-75
2022/11/09 03:37:59;;;;;;;8.25;1.20;;;8.50;99.90;;;;;;5009778;28;20050;-69
2022/11/09 03:40:27;;;;;;;9.98;1.20;;;8.50;99.90;;;;;;5014174;28;20171;-70
2022/11/09 03:42:54;;;;;;;8.95;0.98;;;8.50;99.90;;;;;;5008072;28;20386;-71
2022/11/09 03:45:23;;;;;;;8.43;1.63;;;8.50;99.90;;;;;;5008512;28;20046;-74
2022/11/09 03:47:51;;;;;;;8.77;1.17;;;8.50;99.90;;;;;;5015366;28;20084;-75
2022/11/09 03:50:18;;;;;;;13.88;1.30;;;8.50;99.90;;;;;;5027971;28;20489;-74
2022/11/09 03:52:46;;;;;;;9.98;1.48;;;8.50;99.90;;;;;;5034885;28;20405;-72
2022/11/09 03:55:14;;;;;;;9.55;0.90;;;8.50;99.90;;;;;;5033318;28;20061;-74
2022/11/09 03:57:44;;;;;;;11.10;1.10;;;8.60;99.90;;;;;;5032752;28;20050;-76
2022/11/09 04:00:15;;;;;;;10.73;1.08;;;8.60;99.90;;;;;;5034504;28;20046;-76
2022/11/09 04:02:43;;;;;;;12.43;1.77;;;8.60;99.90;;;;;;5034547;28;20497;-69
2022/11/09 04:05:11;;;;;;;6.65;1.00;;;8.60;99.90;;;;;;5032134;28;20037;-75
2022/11/09 04:07:39;;;;;;;9.20;1.05;;;8.70;99.90;;;;;;5021075;28;20474;-74
2022/11/09 04:10:06;;;;;;;10.98;1.17;;;8.70;99.90;;;;;;5014648;28;20050;-78
2022/11/09 04:12:34;;;;;;;10.05;2.40;;;8.70;99.90;;;;;;5013504;28;20038;-83
2022/11/09 04:15:02;;;;;;;11.98;1.80;;;8.70;99.90;;;;;;5031287;28;20034;-80
2022/11/09 04:17:30;;;;;;;8.80;1.33;;;8.60;99.90;;;;;;5034296;28;20053;-84
2022/11/09 04:19:57;;;;;;;12.30;1.02;;;8.50;99.90;;;;;;5023123;28;20471;-81
2022/11/09 04:22:25;;;;;;;12.63;1.30;;;8.50;99.90;;;;;;5034391;28;20050;-76
2022/11/09 04:24:52;;;;;;;7.05;1.00;;;8.50;99.90;;;;;;5034030;28;20057;-78
2022/11/09 04:27:20;;;;;;;8.07;1.10;;;8.50;99.90;;;;;;5033004;28;20058;-80
2022/11/09 04:29:48;;;;;;;13.60;1.92;;;8.50;99.90;;;;;;5033564;28;20612;-76
2022/11/09 04:32:15;;;;;;;13.13;1.33;;;8.40;99.90;;;;;;5014480;28;20056;-77
2022/11/09 04:34:43;;;;;;;8.63;1.20;;;8.40;99.90;;;;;;5014170;28;20060;-68
2022/11/09 04:37:10;;;;;;;9.82;1.20;;;8.40;99.90;;;;;;5014223;28;20046;-77
2022/11/09 04:39:38;;;;;;;15.55;1.67;;;8.30;99.90;;;;;;5014300;28;20049;-70
2022/11/09 04:42:05;;;;;;;9.18;1.08;;;8.30;99.90;;;;;;5032802;28;20049;-64
2022/11/09 04:44:33;;;;;;;5.47;0.70;;;8.30;99.90;;;;;;5013766;28;20053;-65
2022/11/09 04:47:02;;;;;;;13.85;1.60;;;8.30;99.90;;;;;;5014635;28;20054;-61
2022/11/09 04:49:29;;;;;;;13.48;1.13;;;8.30;99.90;;;;;;5028247;28;20061;-67
2022/11/09 04:51:57;;;;;;;15.13;1.27;;;8.40;99.90;;;;;;5033825;28;20544;-70
2022/11/09 04:54:24;;;;;;;14.65;1.85;;;8.40;99.90;;;;;;5033696;28;20046;-67
2022/11/09 04:56:52;;;;;;;12.15;1.40;;;8.40;99.90;;;;;;5032746;28;20505;-61
2022/11/09 04:59:19;;;;;;;6.18;1.13;;;8.50;99.90;;;;;;5032726;28;20042;-64
2022/11/09 05:01:47;;;;;;;10.30;1.25;;;8.50;99.90;;;;;;5033459;28;20068;-65
2022/11/09 05:04:14;;;;;;;12.10;2.40;;;8.60;99.90;;;;;;5029382;28;20053;-68
2022/11/09 05:06:42;;;;;;;6.95;1.10;;;8.60;99.90;;;;;;5032954;28;20048;-65
2022/11/09 05:09:10;;;;;;;8.13;0.88;;;8.70;99.90;;;;;;5033463;28;20045;-62
2022/11/09 05:11:37;;;;;;;4.13;0.75;;;8.70;99.90;;;;;;5033107;28;20057;-82
2022/11/09 05:14:05;;;;;;;11.10;1.83;;;8.70;99.90;;;;;;5033167;28;20037;-75
2022/11/09 05:16:32;;;;;;;7.93;0.55;;;8.80;99.90;;;;;;5033366;28;20060;-77
2022/11/09 05:19:00;;;;;;;11.70;0.95;;;8.80;99.90;;;;;;5033098;28;20041;-67
2022/11/09 05:21:28;;;;;;;9.30;1.13;;;8.90;99.90;;;;;;5025544;28;20045;-64
2022/11/09 05:23:58;;;;;;;4.53;0.73;;;8.90;99.90;;;;;;5012080;28;20069;-68
2022/11/09 05:26:40;;;;;;;11.23;0.90;;;8.90;99.90;;;;;;5013160;28;20050;-67
2022/11/09 05:29:10;;;;;;;8.93;0.50;;;8.90;99.90;;;;;;5013282;28;20120;-65
2022/11/09 05:31:39;;;;;;;4.53;0.73;;;8.90;99.90;;;;;;5016679;28;20053;-66
2022/11/09 05:34:11;;;;;;;7.47;0.80;;;8.90;99.90;;;;;;5032825;28;20037;-65
2022/11/09 05:36:38;;;;;;;11.10;0.80;;;9.00;99.90;;;;;;5032795;28;20060;-63
2022/11/09 05:39:06;;;;;;;13.18;0.85;;;9.00;99.90;;;;;;5021809;28;20041;-63
2022/11/09 05:41:33;;;;;;;7.38;1.25;;;9.10;99.90;;;;;;5028308;28;20061;-61
2022/11/09 05:44:01;;;;;;;6.68;1.00;;;9.10;99.90;;;;;;5032489;28;20508;-62
2022/11/09 05:46:30;;;;;;;4.82;0.80;;;9.10;99.90;;;;;;5032528;28;20056;-65
2022/11/09 05:48:57;;;;;;;11.52;1.60;;;9.10;99.90;;;;;;5022512;28;20415;-68
2022/11/09 05:51:25;;;;;;;9.52;0.90;;;9.20;99.90;;;;;;5029422;28;20053;-70
2022/11/09 05:53:53;;;;;;;6.80;0.85;;;9.20;99.90;;;;;;5027739;28;20041;-62
2022/11/09 05:56:22;;;;;;;3.85;0.75;;;9.20;99.90;;;;;;5014624;28;20041;-61
2022/11/09 05:58:50;;;;;;;2.85;1.70;;;9.30;99.90;;;;;;5006830;28;20045;-62
2022/11/09 06:01:18;;;;;;;9.82;1.30;;;9.20;99.90;;;;;;5028398;28;20054;-62
2022/11/09 06:03:46;;;;;;;8.38;0.77;;;9.30;99.90;;;;;;4992931;28;20399;-62
2022/11/09 06:06:15;;;;;;;12.10;0.88;;;9.30;99.90;;;;;;5015453;28;20060;-61
2022/11/09 06:08:43;;;;;;;7.40;0.95;;;9.30;99.90;;;;;;5018967;28;20061;-60
2022/11/09 06:11:12;;;;;;;10.82;1.25;;;9.20;99.90;;;;;;5008805;28;20529;-62
2022/11/09 06:13:49;;;;;;;5.50;0.47;;;9.20;99.90;;;;;;5022998;28;20042;-62
2022/11/09 06:16:17;;;;;;;7.03;0.70;;;9.20;99.90;;;;;;5023614;28;20049;-67
2022/11/09 06:18:45;;;;;;;7.10;0.82;;;9.20;99.90;;;;;;5014497;28;20104;-62
2022/11/09 06:21:12;;;;;;;12.18;1.00;;;9.20;99.90;;;;;;5027659;28;20068;-61
2022/11/09 06:23:40;;;;;;;8.25;0.52;;;9.20;99.90;;;;;;5007426;28;20049;-64
2022/11/09 06:26:09;;;;;;;5.70;0.80;;;9.10;99.90;;;;;;5006574;28;20065;-62
2022/11/09 06:28:38;;;;;;;6.78;0.85;;;9.20;99.90;;;;;;5020916;28;20056;-77
2022/11/09 06:31:09;;;;;;;6.15;0.68;;;9.10;99.90;;;;;;5014421;28;20080;-61
2022/11/09 06:33:37;;;;;;;8.25;1.08;;;9.10;99.90;;;;;;5015263;28;20673;-62
2022/11/09 06:36:05;;;;;;;2.67;0.40;;;9.20;99.90;;;;;;5006585;28;20411;-60
2022/11/09 06:38:33;;;;;;;7.43;0.55;;;9.20;99.90;;;;;;5020045;28;20527;-61
2022/11/09 06:41:00;;;;;;;9.05;0.50;;;9.20;99.90;;;;;;5015893;28;20061;-61
2022/11/09 06:43:28;;;;;;;8.73;1.02;;;9.20;99.90;;;;;;5020794;28;20044;-61
2022/11/09 06:45:56;;;;;;;2.25;0.30;;;9.20;99.90;;;;;;5024720;28;20541;-62
2022/11/09 06:48:23;;;;;;;6.22;0.40;;;9.20;99.90;;;;;;5022476;28;20052;-65
2022/11/09 06:50:51;;;;;;;5.55;0.50;;;9.20;99.90;;;;;;5011559;28;20053;-65
2022/11/09 06:53:19;;;;;;;4.00;0.57;;;9.20;99.90;;;;;;5012374;28;20052;-62
2022/11/09 06:55:47;;;;;;;3.45;0.50;;;9.20;99.90;;;;;;5005448;28;20054;-61
2022/11/09 06:58:18;;;;;;;8.57;0.50;;;9.20;99.90;;;;;;5011870;28;20421;-64
2022/11/09 07:00:46;;;;;;;5.72;0.70;;;9.20;99.90;;;;;;5004089;28;20042;-78
2022/11/09 07:03:15;;;;;;;2.53;0.32;;;9.20;99.90;;;;;;5017983;28;20285;-65
2022/11/09 07:05:47;;;;;;;8.27;0.50;;;9.20;99.90;;;;;;5015439;28;20050;-81
2022/11/09 07:08:16;;;;;;;3.53;0.50;;;9.20;99.90;;;;;;5018160;28;20053;-74
2022/11/09 07:10:44;;;;;;;1.83;0.30;;;9.10;99.90;;;;;;5009386;28;20049;-61
2022/11/09 07:13:12;;;;;;;5.45;0.73;;;9.10;99.90;;;;;;5020248;28;20049;-63
2022/11/09 07:15:40;;;;;;;4.68;0.40;;;9.10;99.90;;;;;;5017585;28;20521;-64
2022/11/09 07:18:10;;;;;;;2.00;0.20;;;9.10;99.90;;;;;;5016424;28;20056;-65
2022/11/09 07:20:38;;;;;;;1.90;0.30;;;9.10;99.90;;;;;;5011232;28;20057;-69
2022/11/09 07:23:06;;;;;;;2.28;0.35;;;9.00;99.90;;;;;;5015653;28;20038;-62
2022/11/09 07:25:35;;;;;;;4.38;0.40;;;9.10;99.90;;;;;;5014454;28;20064;-61
2022/11/09 07:28:07;;;;;;;4.15;0.40;;;9.00;99.90;;;;;;5019174;28;20038;-61
2022/11/09 07:30:35;;;;;;;3.58;0.43;;;9.00;99.90;;;;;;5014307;28;20052;-61
2022/11/09 07:33:14;;;;;;;2.72;0.50;;;8.90;99.90;;;;;;5016637;28;20402;-62
2022/11/09 07:35:42;;;;;;;5.07;0.68;;;9.00;99.90;;;;;;5008922;28;20394;-61
2022/11/09 07:38:10;;;;;;;4.60;0.47;;;8.90;99.90;;;;;;5016181;28;20037;-63
2022/11/09 07:40:39;;;;;;;1.73;0.40;;;8.90;99.90;;;;;;5014826;28;20047;-62
2022/11/09 07:43:07;;;;;;;3.05;0.35;;;8.90;99.90;;;;;;5011624;28;20648;-70
2022/11/09 07:45:37;;;;;;;;;;;8.90;99.90;;;;;;5026603;28;20409;-65
2022/11/09 07:48:07;;;;;;;2.92;0.40;;;8.90;99.90;;;;;;5020030;28;19925;-65
2022/11/09 07:50:36;;;;;;;1.60;0.40;;;9.00;99.90;;;;;;5022657;28;20049;-62
2022/11/09 07:53:06;;;;;;;3.33;0.17;;;8.90;99.90;;;;;;5017130;28;20052;-69
2022/11/09 07:55:34;;;;;;;4.30;0.38;;;8.90;99.90;;;;;;5015114;28;20805;-68
2022/11/09 07:58:08;;;;;;;1.85;0.28;;;8.90;99.90;;;;;;5014985;28;20050;-66
2022/11/09 08:00:38;;;;;;;7.05;0.95;;;8.80;99.90;;;;;;5009420;28;20045;-76
2022/11/09 08:03:06;;;;;;;2.45;0.30;;;8.80;99.90;;;;;;5011461;28;20049;-61
2022/11/09 08:05:36;;;;;;;;;;;8.80;99.90;;;;;;4997357;28;20406;-68
2022/11/09 08:08:07;;;;;;;2.50;0.20;;;8.80;99.90;;;;;;5017546;28;20292;-63
2022/11/09 08:10:36;;;;;;;4.18;0.70;;;8.80;99.90;;;;;;5011066;28;20584;-68
2022/11/09 08:13:07;;;;;;;3.45;0.52;;;8.80;99.90;;;;;;5016540;28;20053;-78
2022/11/09 08:15:35;;;;;;;1.00;0.20;;;8.80;99.90;;;;;;5020437;28;20827;-62
2022/11/09 08:18:05;;;;;;;1.55;0.45;;;8.90;99.90;;;;;;5027310;28;20056;-61
2022/11/09 08:20:33;;;;;;;1.85;0.60;;;8.90;99.90;;;;;;5009912;28;20042;-64
2022/11/09 08:23:01;;;;;;;3.80;0.60;;;8.90;99.90;;;;;;5017364;28;20053;-73
2022/11/09 08:25:35;;;;;;;4.68;0.70;;;8.90;99.90;;;;;;5019760;28;20053;-68
2022/11/09 08:28:03;;;;;;;9.02;0.50;;;8.90;99.90;;;;;;5003355;28;20052;-62
2022/11/09 08:30:32;;;;;;;0.68;0.20;;;8.90;99.90;;;;;;5016851;28;20045;-62
2022/11/09 08:33:02;;;;;;;6.47;0.57;;;8.90;99.90;;;;;;5009895;28;20053;-75
2022/11/09 08:35:30;;;;;;;1.95;0.88;;;8.90;99.90;;;;;;5019858;28;20056;-72
2022/11/09 08:38:01;;;;;;;3.78;0.20;;;8.90;99.90;;;;;;5016425;28;20045;-76
2022/11/09 08:40:30;;;;;;;2.17;0.63;;;8.90;99.90;;;;;;5029756;28;20060;-61
2022/11/09 08:43:06;;;;;;;2.30;0.32;;;8.90;99.90;;;;;;5011007;28;20049;-64
2022/11/09 08:45:36;;;;;;;2.65;0.20;;;11.30;99.90;;;;;;5015654;28;20053;-61
2022/11/09 08:48:04;;;;;;;4.63;0.35;;;9.00;99.90;;;;;;5019869;28;20046;-62
2022/11/09 08:50:34;;;;;;;4.72;0.40;;;9.00;99.90;;;;;;5019625;28;20037;-61
2022/11/09 08:53:04;;;;;;;5.88;0.32;;;9.00;99.90;;;;;;5019792;28;20069;-61
2022/11/09 08:55:32;;;;;;;2.25;0.57;;;9.00;99.90;;;;;;5029461;28;20477;-62
2022/11/09 08:58:01;;;;;;;7.05;0.55;;;9.00;99.90;;;;;;5018177;28;20056;-61
2022/11/09 09:00:29;;;;;;;2.38;0.43;;;9.10;99.90;;;;;;5014882;28;20045;-61
2022/11/09 09:02:58;;;;;;;4.32;0.30;;;9.10;99.90;;;;;;5023541;28;20049;-61
2022/11/09 09:05:25;;;;;;;1.70;0.40;;;9.20;99.90;;;;;;5027237;28;20042;-62
2022/11/09 09:07:53;;;;;;;1.02;0.22;;;9.30;99.90;;;;;;5030022;28;20516;-62
2022/11/09 09:10:21;;;;;;;4.15;0.52;;;9.30;99.90;;;;;;5019241;28;20061;-62
2022/11/09 09:12:48;;;;;;;2.88;0.60;;;9.30;99.90;;;;;;5016784;28;20053;-61
2022/11/09 09:15:16;;;;;;;4.60;0.80;;;9.40;99.90;;;;;;5012830;28;20368;-69
2022/11/09 09:17:44;;;;;;;1.15;0.30;;;9.50;99.90;;;;;;5013219;28;20549;-68
2022/11/09 09:20:12;;;;;;;2.70;0.68;;;9.50;99.90;;;;;;5028035;28;20496;-69
2022/11/09 09:22:40;;;;;;;1.45;0.30;;;9.60;99.90;;;;;;5023282;28;20046;-75
2022/11/09 09:25:08;;;;;;;4.97;0.85;;;9.60;99.90;;;;;;5028575;28;20049;-73
2022/11/09 09:27:35;;;;;;;2.75;1.10;;;9.70;99.90;;;;;;5018968;28;20052;-72
2022/11/09 09:30:04;;;;;;;3.58;0.22;;;9.80;99.90;;;;;;5025363;28;20041;-74
2022/11/09 09:32:32;;;;;;;0.30;0.20;;;9.80;99.90;;;;;;5015695;28;20050;-72
2022/11/09 09:34:59;;;;;;;2.45;0.40;;;9.90;99.90;;;;;;5010016;28;20049;-70
2022/11/09 09:37:27;;;;;;;3.72;0.47;;;10.00;99.90;;;;;;5018570;28;20053;-69
2022/11/09 09:39:55;;;;;;;5.38;0.40;;;10.10;99.90;;;;;;5020163;28;20042;-74
2022/11/09 09:42:36;;;;;;;3.15;0.50;;;10.10;99.90;;;;;;5012713;28;20331;-61
2022/11/09 09:45:13;;;;;;;5.88;0.40;;;10.10;99.90;;;;;;5026482;28;20041;-61
2022/11/09 09:48:02;;;;;;;6.97;1.15;;;10.10;99.90;;;;;;5014348;28;20041;-60
2022/11/09 09:50:44;;;;;;;5.43;0.40;;;10.10;99.90;;;;;;5013317;28;20493;-60
2022/11/09 09:53:34;;;;;;;1.08;0.30;;;10.20;99.90;;;;;;5015870;28;20300;-64
2022/11/09 09:56:12;;;;;;;6.75;0.60;;;10.20;99.90;;;;;;5010120;28;20037;-64
2022/11/09 09:58:58;;;;;;;4.93;0.57;;;10.30;99.90;;;;;;5021118;28;20068;-60
2022/11/09 10:01:35;;;;;;;1.80;0.50;;;10.40;99.90;;;;;;5029371;28;20046;-62
2022/11/09 10:04:16;;;;;;;5.10;0.70;;;10.50;99.90;;;;;;5028775;28;20511;-61
2022/11/09 10:07:05;;;;;;;8.43;0.57;;;10.70;99.90;;;;;;5026253;28;20386;-62
2022/11/09 10:09:36;;;;;;;4.80;0.77;;;10.70;99.90;;;;;;5014484;28;20820;-64
2022/11/09 10:12:15;;;;;;;7.45;0.55;;;10.90;99.90;;;;;;5010239;28;20056;-61
2022/11/09 10:15:15;;;;;;;6.85;0.60;;;10.90;99.90;;;;;;5014144;28;20045;-64
2022/11/09 10:18:31;;;;;;;7.65;0.77;;;10.80;99.90;;;;;;5011180;28;20532;-62
2022/11/09 10:21:14;;;;;;;8.20;1.17;;;10.80;99.90;;;;;;5026955;28;20054;-66
2022/11/09 10:24:00;;;;;;;8.00;0.80;;;10.80;99.90;;;;;;5014304;28;20403;-61
2022/11/09 10:26:39;;;;;;;3.20;0.30;;;10.70;99.90;;;;;;5008749;28;20053;-63
2022/11/09 10:29:19;;;;;;;6.57;0.98;;;10.70;99.90;;;;;;5021780;28;20049;-64
2022/11/09 10:31:49;;;;;;;5.13;0.73;;;10.80;99.90;;;;;;5022606;28;20052;-61
2022/11/09 10:34:27;;;;;;;10.75;0.75;;;10.80;99.90;;;;;;5024441;28;20049;-61
2022/11/09 10:37:02;;;;;;;8.38;0.70;;;10.70;99.90;;;;;;5018850;28;20040;-61
2022/11/09 10:39:39;;;;;;;3.13;0.63;;;10.70;99.90;;;;;;5008120;28;20053;-66
2022/11/09 10:42:25;;;;;;;9.63;0.90;;;10.80;99.90;;;;;;5009138;28;20037;-60
2022/11/09 10:45:42;;;;;;;6.00;0.70;;;10.80;99.90;;;;;;5015643;28;20049;-68
2022/11/09 10:48:32;;;;;;;5.88;0.65;;;10.80;99.90;;;;;;5024354;28;20064;-72
2022/11/09 10:51:33;;;;;;;2.58;0.60;;;10.80;99.90;;;;;;5023601;28;20049;-71
2022/11/09 10:54:36;;;;;;;8.73;0.80;;;10.80;99.90;;;;;;5025416;28;20519;-65
2022/11/09 10:57:23;;;;;;;10.18;1.88;;;10.80;99.90;;;;;;5008447;28;20577;-66
2022/11/09 11:00:15;;;;;;;14.98;1.33;;;10.80;99.90;;;;;;5026324;28;20052;-61
2022/11/09 11:03:17;;;;;;;6.03;0.85;;;10.80;99.90;;;;;;5028049;28;20046;-61
2022/11/09 11:06:06;;;;;;;7.65;1.10;;;10.80;99.90;;;;;;5028350;28;20389;-62
2022/11/09 11:09:14;;;;;;;8.63;1.00;;;10.80;99.90;;;;;;5027811;28;20037;-64
2022/11/09 11:12:19;;;;;;;3.20;1.08;;;10.70;99.90;;;;;;5027137;28;20574;-62
2022/11/09 11:15:25;;;;;;;10.45;2.60;;;10.70;99.90;;;;;;5011328;28;20052;-71
2022/11/09 11:18:18;;;;;;;9.52;0.88;;;10.70;99.90;;;;;;5027585;28;20512;-62
2022/11/09 11:21:17;;;;;;;8.15;1.65;;;10.70;99.90;;;;;;5027958;28;20493;-65
2022/11/09 11:24:11;;;;;;;15.02;1.00;;;10.70;99.90;;;;;;5023026;28;20050;-60
2022/11/09 11:27:05;;;;;;;4.72;0.73;;;10.80;99.90;;;;;;5012603;28;20500;-61
2022/11/09 11:30:05;;;;;;;9.77;1.35;;;11.20;99.90;;;;;;5006918;28;20057;-61
2022/11/09 11:32:53;;;;;;;5.03;0.50;;;12.00;99.90;;;;;;5016813;28;20052;-61
2022/11/09 11:35:53;;;;;;;13.45;1.65;;;12.10;99.90;;;;;;5024460;28;20444;-70
2022/11/09 11:38:50;;;;;;;;;;;12.50;99.90;;;;;;5014246;28;20042;-73
2022/11/09 11:41:59;;;;;;;11.50;1.20;;;13.10;99.90;;;;;;5026528;28;19921;-65
2022/11/09 11:44:59;;;;;;;4.53;1.52;;;13.10;99.90;;;;;;5007685;28;20045;-61
2022/11/09 11:48:22;;;;;;;7.18;1.00;;;13.30;99.90;;;;;;5012099;28;20054;-61
2022/11/09 11:51:29;;;;;;;15.93;0.90;;;13.60;99.90;;;;;;5007194;28;20482;-65
2022/11/09 11:54:28;;;;;;;10.70;1.40;;;13.80;99.90;;;;;;5025150;28;20042;-63
2022/11/09 11:57:29;;;;;;;7.88;0.90;;;13.90;99.90;;;;;;5008647;28;20049;-64
2022/11/09 12:00:18;;;;;;;7.95;0.82;;;13.70;99.90;;;;;;5007967;28;20046;-67
2022/11/09 12:03:10;;;;;;;8.45;1.05;;;13.60;99.90;;;;;;5014476;28;20057;-66
2022/11/09 12:05:59;;;;;;;10.40;1.10;;;13.60;99.90;;;;;;5027860;28;20054;-71
2022/11/09 12:09:23;;;;;;;6.50;0.80;;;13.80;99.90;;;;;;5024121;28;20072;-68
2022/11/09 12:12:38;;;;;;;10.52;1.48;;;14.50;99.90;;;;;;5013791;28;20046;-65
2022/11/09 12:15:32;;;;;;;7.90;0.80;;;15.00;99.90;;;;;;5011294;28;20049;-72
2022/11/09 12:18:27;;;;;;;10.85;1.20;;;15.50;99.90;;;;;;5024034;28;20056;-64
2022/11/09 12:21:17;;;;;;;6.68;0.80;;;15.90;99.90;;;;;;5020498;28;20049;-63
2022/11/09 12:24:14;;;;;;;4.03;0.50;;;16.30;99.90;;;;;;5016608;28;20065;-65
2022/11/09 12:27:45;;;;;;;8.25;1.55;;;16.50;99.90;;;;;;5009901;28;20065;-65
2022/11/09 12:31:26;;;;;;;5.75;0.80;;;15.80;99.90;;;;;;5011262;28;20045;-65
2022/11/09 12:34:26;;;;;;;8.13;0.88;;;15.70;99.90;;;;;;5025821;28;20053;-64
2022/11/09 12:37:19;;;;;;;5.47;0.75;;;16.10;99.90;;;;;;5011521;28;20046;-66
2022/11/09 12:40:31;;;;;;;10.65;0.95;;;16.10;99.90;;;;;;5029744;28;20045;-65
2022/11/09 12:43:44;;;;;;;14.00;1.00;;;16.20;99.90;;;;;;5011888;28;20240;-65
2022/11/09 12:46:42;;;;;;;7.68;1.00;;;15.90;99.90;;;;;;5011234;28;20062;-63
2022/11/09 12:49:40;;;;;;;8.60;1.33;;;15.20;99.90;;;;;;5021061;28;20069;-61
2022/11/09 12:52:28;;;;;;;5.60;1.10;;;14.70;99.90;;;;;;5007669;28;20473;-65
2022/11/09 12:55:27;;;;;;;6.88;0.93;;;14.20;99.90;;;;;;5013938;28;20037;-59
2022/11/09 12:58:26;;;;;;;3.40;0.68;;;13.80;99.90;;;;;;5015839;28;20052;-62
2022/11/09 13:01:32;;;;;;;5.75;0.82;;;13.40;99.90;;;;;;5009998;28;20050;-63
2022/11/09 13:04:20;;;;;;;5.80;0.77;;;13.00;99.90;;;;;;5012280;28;20038;-65
2022/11/09 13:07:12;;;;;;;5.18;0.55;;;12.70;99.90;;;;;;5008154;28;20046;-63
2022/11/09 13:10:01;;;;;;;3.72;0.50;;;12.50;99.90;;;;;;5009262;28;20073;-62
2022/11/09 13:12:47;;;;;;;7.07;0.85;;;12.30;99.90;;;;;;5016055;28;20504;-65
2022/11/09 13:15:34;;;;;;;6.22;0.82;;;12.30;99.90;;;;;;5017213;28;20293;-62
2022/11/09 13:18:29;;;;;;;5.22;0.85;;;12.80;99.90;;;;;;5023550;28;20060;-66
2022/11/09 13:21:20;;;;;;;;;;;13.80;99.90;;;;;;5030617;28;20049;-68
2022/11/09 13:24:53;;;;;;;5.80;0.93;;;14.80;99.90;;;;;;5012015;28;20372;-66
2022/11/09 13:27:47;;;;;;;3.72;0.60;;;15.90;99.90;;;;;;5012040;28;20080;-71
2022/11/09 13:30:42;;;;;;;7.85;0.88;;;16.70;99.90;;;;;;5021724;28;20428;-70
2022/11/09 13:33:29;;;;;;;6.60;0.50;;;17.30;99.90;;;;;;5029161;28;20489;-73
2022/11/09 13:36:18;;;;;;;6.65;0.50;;;17.40;99.90;;;;;;5029762;28;20049;-69
2022/11/09 13:39:31;;;;;;;3.55;0.70;;;18.00;99.90;;;;;;5027221;28;20540;-64